sensor_id;sensor_type;location;lat;lon;timestamp;P1;durP1;ratioP1;P2;durP2;ratioP2
7398;SDS011;3740;50.700;7.184;2023-01-15T00:01:46;1.57;;;0.80;;
7398;SDS011;3740;50.700;7.184;2023-01-15T00:04:11;1.27;;;1.00;;
7398;SDS011;3740;50.700;7.184;2023-01-15T00:06:38;1.73;;;1.17;;
7398;SDS011;3740;50.700;7.184;2023-01-15T00:09:05;1.97;;;1.30;;
7398;SDS011;3740;50.700;7.184;2023-01-15T00:11:31;1.27;;;0.93;;
7398;SDS011;3740;50.700;7.184;2023-01-15T00:13:57;2.40;;;1.03;;
7398;SDS011;3740;50.700;7.184;2023-01-15T00:16:23;2.53;;;1.17;;
7398;SDS011;3740;50.700;7.184;2023-01-15T00:18:51;1.23;;;0.80;;
7398;SDS011;3740;50.700;7.184;2023-01-15T00:21:18;1.37;;;1.00;;
7398;SDS011;3740;50.700;7.184;2023-01-15T00:23:45;1.83;;;0.97;;
7398;SDS011;3740;50.700;7.184;2023-01-15T00:26:30;1.00;;;0.70;;
7398;SDS011;3740;50.700;7.184;2023-01-15T00:29:15;0.57;;;0.43;;
7398;SDS011;3740;50.700;7.184;2023-01-15T00:31:41;1.23;;;1.00;;
7398;SDS011;3740;50.700;7.184;2023-01-15T00:34:14;3.50;;;0.90;;
7398;SDS011;3740;50.700;7.184;2023-01-15T00:36:40;2.70;;;0.70;;
7398;SDS011;3740;50.700;7.184;2023-01-15T00:39:05;2.97;;;1.00;;
7398;SDS011;3740;50.700;7.184;2023-01-15T00:41:31;1.10;;;0.60;;
7398;SDS011;3740;50.700;7.184;2023-01-15T00:43:57;1.43;;;1.00;;
7398;SDS011;3740;50.700;7.184;2023-01-15T00:46:22;1.90;;;1.00;;
7398;SDS011;3740;50.700;7.184;2023-01-15T00:48:48;1.37;;;0.90;;
7398;SDS011;3740;50.700;7.184;2023-01-15T00:51:13;2.30;;;0.80;;
7398;SDS011;3740;50.700;7.184;2023-01-15T00:53:39;0.90;;;0.80;;
7398;SDS011;3740;50.700;7.184;2023-01-15T00:56:05;1.60;;;1.03;;
7398;SDS011;3740;50.700;7.184;2023-01-15T00:58:30;1.73;;;1.17;;
7398;SDS011;3740;50.700;7.184;2023-01-15T01:00:57;3.00;;;1.00;;
7398;SDS011;3740;50.700;7.184;2023-01-15T01:03:25;1.63;;;0.80;;
7398;SDS011;3740;50.700;7.184;2023-01-15T01:05:51;3.10;;;0.90;;
7398;SDS011;3740;50.700;7.184;2023-01-15T01:08:16;1.77;;;0.97;;
7398;SDS011;3740;50.700;7.184;2023-01-15T01:10:43;1.97;;;1.10;;
7398;SDS011;3740;50.700;7.184;2023-01-15T01:13:09;1.67;;;1.00;;
7398;SDS011;3740;50.700;7.184;2023-01-15T01:15:36;3.00;;;1.00;;
7398;SDS011;3740;50.700;7.184;2023-01-15T01:18:02;1.60;;;0.83;;
7398;SDS011;3740;50.700;7.184;2023-01-15T01:20:29;1.83;;;1.17;;
7398;SDS011;3740;50.700;7.184;2023-01-15T01:22:55;2.30;;;1.00;;
7398;SDS011;3740;50.700;7.184;2023-01-15T01:25:20;1.73;;;1.00;;
7398;SDS011;3740;50.700;7.184;2023-01-15T01:27:46;0.90;;;0.80;;
7398;SDS011;3740;50.700;7.184;2023-01-15T01:30:12;1.20;;;0.90;;
7398;SDS011;3740;50.700;7.184;2023-01-15T01:32:38;0.93;;;0.83;;
7398;SDS011;3740;50.700;7.184;2023-01-15T01:35:04;1.57;;;0.73;;
7398;SDS011;3740;50.700;7.184;2023-01-15T01:37:30;0.97;;;0.73;;
7398;SDS011;3740;50.700;7.184;2023-01-15T01:39:56;1.50;;;0.87;;
7398;SDS011;3740;50.700;7.184;2023-01-15T01:42:21;2.20;;;1.10;;
7398;SDS011;3740;50.700;7.184;2023-01-15T01:47:14;1.23;;;0.87;;
7398;SDS011;3740;50.700;7.184;2023-01-15T01:49:46;1.00;;;0.80;;
7398;SDS011;3740;50.700;7.184;2023-01-15T01:52:20;0.77;;;0.70;;
7398;SDS011;3740;50.700;7.184;2023-01-15T01:55:17;0.90;;;0.80;;
7398;SDS011;3740;50.700;7.184;2023-01-15T01:57:45;0.97;;;0.80;;
7398;SDS011;3740;50.700;7.184;2023-01-15T02:00:12;0.77;;;0.60;;
7398;SDS011;3740;50.700;7.184;2023-01-15T02:02:39;1.37;;;0.70;;
7398;SDS011;3740;50.700;7.184;2023-01-15T02:05:07;1.77;;;0.83;;
7398;SDS011;3740;50.700;7.184;2023-01-15T02:07:33;1.40;;;1.30;;
7398;SDS011;3740;50.700;7.184;2023-01-15T02:09:59;1.23;;;1.00;;
7398;SDS011;3740;50.700;7.184;2023-01-15T02:12:33;1.23;;;1.03;;
7398;SDS011;3740;50.700;7.184;2023-01-15T02:15:13;0.87;;;0.87;;
7398;SDS011;3740;50.700;7.184;2023-01-15T02:17:48;1.13;;;0.90;;
7398;SDS011;3740;50.700;7.184;2023-01-15T02:23:04;1.47;;;0.80;;
7398;SDS011;3740;50.700;7.184;2023-01-15T02:28:50;0.60;;;0.50;;
7398;SDS011;3740;50.700;7.184;2023-01-15T02:36:54;1.13;;;0.63;;
7398;SDS011;3740;50.700;7.184;2023-01-15T02:39:25;0.37;;;0.30;;
7398;SDS011;3740;50.700;7.184;2023-01-15T02:41:53;0.57;;;0.40;;
7398;SDS011;3740;50.700;7.184;2023-01-15T02:44:23;0.50;;;0.50;;
7398;SDS011;3740;50.700;7.184;2023-01-15T02:46:50;0.50;;;0.50;;
7398;SDS011;3740;50.700;7.184;2023-01-15T02:49:19;1.30;;;0.70;;
7398;SDS011;3740;50.700;7.184;2023-01-15T02:52:03;1.27;;;0.60;;
7398;SDS011;3740;50.700;7.184;2023-01-15T02:54:38;1.07;;;0.63;;
7398;SDS011;3740;50.700;7.184;2023-01-15T02:57:09;0.97;;;0.40;;
7398;SDS011;3740;50.700;7.184;2023-01-15T02:59:38;0.73;;;0.40;;
7398;SDS011;3740;50.700;7.184;2023-01-15T03:02:11;1.53;;;0.80;;
7398;SDS011;3740;50.700;7.184;2023-01-15T03:04:41;1.90;;;0.77;;
7398;SDS011;3740;50.700;7.184;2023-01-15T03:10:02;0.70;;;0.70;;
7398;SDS011;3740;50.700;7.184;2023-01-15T03:12:34;1.23;;;0.50;;
7398;SDS011;3740;50.700;7.184;2023-01-15T03:15:21;0.67;;;0.50;;
7398;SDS011;3740;50.700;7.184;2023-01-15T03:18:09;1.13;;;0.37;;
7398;SDS011;3740;50.700;7.184;2023-01-15T03:20:37;0.57;;;0.50;;
7398;SDS011;3740;50.700;7.184;2023-01-15T03:23:09;0.60;;;0.47;;
7398;SDS011;3740;50.700;7.184;2023-01-15T03:25:39;1.07;;;0.80;;
7398;SDS011;3740;50.700;7.184;2023-01-15T03:28:09;1.17;;;0.60;;
7398;SDS011;3740;50.700;7.184;2023-01-15T03:30:38;0.50;;;0.50;;
7398;SDS011;3740;50.700;7.184;2023-01-15T03:33:03;1.60;;;0.43;;
7398;SDS011;3740;50.700;7.184;2023-01-15T03:38:04;1.00;;;0.57;;
7398;SDS011;3740;50.700;7.184;2023-01-15T03:40:30;1.17;;;0.50;;
7398;SDS011;3740;50.700;7.184;2023-01-15T03:42:59;2.73;;;1.00;;
7398;SDS011;3740;50.700;7.184;2023-01-15T03:45:47;2.00;;;1.10;;
7398;SDS011;3740;50.700;7.184;2023-01-15T03:50:52;3.20;;;1.33;;
7398;SDS011;3740;50.700;7.184;2023-01-15T03:53:32;4.90;;;1.40;;
7398;SDS011;3740;50.700;7.184;2023-01-15T03:58:53;2.63;;;1.00;;
7398;SDS011;3740;50.700;7.184;2023-01-15T04:01:25;2.90;;;0.83;;
7398;SDS011;3740;50.700;7.184;2023-01-15T04:03:56;3.33;;;1.07;;
7398;SDS011;3740;50.700;7.184;2023-01-15T04:06:23;3.03;;;0.70;;
7398;SDS011;3740;50.700;7.184;2023-01-15T04:08:51;1.70;;;0.70;;
7398;SDS011;3740;50.700;7.184;2023-01-15T04:11:24;1.80;;;0.87;;
7398;SDS011;3740;50.700;7.184;2023-01-15T04:13:50;4.10;;;1.50;;
7398;SDS011;3740;50.700;7.184;2023-01-15T04:16:18;2.43;;;1.20;;
7398;SDS011;3740;50.700;7.184;2023-01-15T04:18:50;3.10;;;1.20;;
7398;SDS011;3740;50.700;7.184;2023-01-15T04:21:16;1.70;;;0.77;;
7398;SDS011;3740;50.700;7.184;2023-01-15T04:23:42;2.23;;;1.33;;
7398;SDS011;3740;50.700;7.184;2023-01-15T04:26:07;2.60;;;1.10;;
7398;SDS011;3740;50.700;7.184;2023-01-15T04:28:33;1.80;;;1.10;;
7398;SDS011;3740;50.700;7.184;2023-01-15T04:30:58;4.37;;;1.43;;
7398;SDS011;3740;50.700;7.184;2023-01-15T04:33:24;3.73;;;1.50;;
7398;SDS011;3740;50.700;7.184;2023-01-15T04:35:50;4.63;;;1.33;;
7398;SDS011;3740;50.700;7.184;2023-01-15T04:38:16;2.53;;;0.93;;
7398;SDS011;3740;50.700;7.184;2023-01-15T04:40:42;4.20;;;1.27;;
7398;SDS011;3740;50.700;7.184;2023-01-15T04:43:26;2.47;;;1.10;;
7398;SDS011;3740;50.700;7.184;2023-01-15T04:46:11;2.00;;;1.03;;
7398;SDS011;3740;50.700;7.184;2023-01-15T04:48:37;3.20;;;1.37;;
7398;SDS011;3740;50.700;7.184;2023-01-15T04:51:04;3.80;;;1.40;;
7398;SDS011;3740;50.700;7.184;2023-01-15T04:53:30;3.87;;;1.13;;
7398;SDS011;3740;50.700;7.184;2023-01-15T04:55:59;2.67;;;1.20;;
7398;SDS011;3740;50.700;7.184;2023-01-15T04:58:26;1.93;;;1.10;;
7398;SDS011;3740;50.700;7.184;2023-01-15T05:00:51;1.83;;;1.07;;
7398;SDS011;3740;50.700;7.184;2023-01-15T05:03:17;2.77;;;1.13;;
7398;SDS011;3740;50.700;7.184;2023-01-15T05:05:42;2.63;;;1.10;;
7398;SDS011;3740;50.700;7.184;2023-01-15T05:08:08;1.90;;;0.93;;
7398;SDS011;3740;50.700;7.184;2023-01-15T05:10:34;4.33;;;1.33;;
7398;SDS011;3740;50.700;7.184;2023-01-15T05:12:59;2.63;;;1.07;;
7398;SDS011;3740;50.700;7.184;2023-01-15T05:15:25;3.83;;;1.20;;
7398;SDS011;3740;50.700;7.184;2023-01-15T05:17:50;2.80;;;1.40;;
7398;SDS011;3740;50.700;7.184;2023-01-15T05:20:16;2.53;;;1.50;;
7398;SDS011;3740;50.700;7.184;2023-01-15T05:22:41;1.30;;;1.03;;
7398;SDS011;3740;50.700;7.184;2023-01-15T05:25:07;4.13;;;1.17;;
7398;SDS011;3740;50.700;7.184;2023-01-15T05:27:33;2.97;;;1.40;;
7398;SDS011;3740;50.700;7.184;2023-01-15T05:29:58;2.30;;;1.13;;
7398;SDS011;3740;50.700;7.184;2023-01-15T05:32:24;3.50;;;1.17;;
7398;SDS011;3740;50.700;7.184;2023-01-15T05:34:49;3.73;;;1.20;;
7398;SDS011;3740;50.700;7.184;2023-01-15T05:37:15;2.80;;;1.20;;
7398;SDS011;3740;50.700;7.184;2023-01-15T05:39:40;2.37;;;1.07;;
7398;SDS011;3740;50.700;7.184;2023-01-15T05:42:06;2.60;;;1.27;;
7398;SDS011;3740;50.700;7.184;2023-01-15T05:44:32;2.27;;;0.87;;
7398;SDS011;3740;50.700;7.184;2023-01-15T05:46:58;2.67;;;1.30;;
7398;SDS011;3740;50.700;7.184;2023-01-15T05:49:30;3.47;;;1.40;;
7398;SDS011;3740;50.700;7.184;2023-01-15T05:51:56;2.20;;;1.23;;
7398;SDS011;3740;50.700;7.184;2023-01-15T05:54:25;3.20;;;1.47;;
7398;SDS011;3740;50.700;7.184;2023-01-15T05:56:55;3.10;;;1.27;;
7398;SDS011;3740;50.700;7.184;2023-01-15T05:59:22;3.00;;;1.33;;
7398;SDS011;3740;50.700;7.184;2023-01-15T06:01:50;2.33;;;1.30;;
7398;SDS011;3740;50.700;7.184;2023-01-15T06:04:16;3.23;;;1.03;;
7398;SDS011;3740;50.700;7.184;2023-01-15T06:06:45;1.83;;;0.90;;
7398;SDS011;3740;50.700;7.184;2023-01-15T06:09:11;2.83;;;1.10;;
7398;SDS011;3740;50.700;7.184;2023-01-15T06:11:37;1.60;;;0.83;;
7398;SDS011;3740;50.700;7.184;2023-01-15T06:14:03;1.93;;;1.20;;
7398;SDS011;3740;50.700;7.184;2023-01-15T06:16:28;2.70;;;0.90;;
7398;SDS011;3740;50.700;7.184;2023-01-15T06:18:54;2.17;;;0.93;;
7398;SDS011;3740;50.700;7.184;2023-01-15T06:21:19;1.77;;;0.80;;
7398;SDS011;3740;50.700;7.184;2023-01-15T06:23:45;1.77;;;0.93;;
7398;SDS011;3740;50.700;7.184;2023-01-15T06:28:39;1.13;;;0.87;;
7398;SDS011;3740;50.700;7.184;2023-01-15T06:31:05;1.90;;;0.73;;
7398;SDS011;3740;50.700;7.184;2023-01-15T06:33:33;0.73;;;0.60;;
7398;SDS011;3740;50.700;7.184;2023-01-15T06:36:05;2.87;;;1.10;;
7398;SDS011;3740;50.700;7.184;2023-01-15T06:38:42;1.17;;;0.80;;
7398;SDS011;3740;50.700;7.184;2023-01-15T06:41:11;0.50;;;0.40;;
7398;SDS011;3740;50.700;7.184;2023-01-15T06:43:57;0.37;;;0.30;;
7398;SDS011;3740;50.700;7.184;2023-01-15T06:46:45;0.40;;;0.37;;
7398;SDS011;3740;50.700;7.184;2023-01-15T06:49:31;1.87;;;0.60;;
7398;SDS011;3740;50.700;7.184;2023-01-15T06:51:58;0.33;;;0.30;;
7398;SDS011;3740;50.700;7.184;2023-01-15T06:54:24;0.67;;;0.50;;
7398;SDS011;3740;50.700;7.184;2023-01-15T06:56:50;0.30;;;0.30;;
7398;SDS011;3740;50.700;7.184;2023-01-15T06:59:16;0.57;;;0.40;;
7398;SDS011;3740;50.700;7.184;2023-01-15T07:01:43;0.20;;;0.20;;
7398;SDS011;3740;50.700;7.184;2023-01-15T07:04:08;0.40;;;0.37;;
7398;SDS011;3740;50.700;7.184;2023-01-15T07:06:34;0.50;;;0.50;;
7398;SDS011;3740;50.700;7.184;2023-01-15T07:08:59;0.30;;;0.30;;
7398;SDS011;3740;50.700;7.184;2023-01-15T07:11:25;0.50;;;0.50;;
7398;SDS011;3740;50.700;7.184;2023-01-15T07:13:50;0.40;;;0.40;;
7398;SDS011;3740;50.700;7.184;2023-01-15T07:16:29;0.80;;;0.40;;
7398;SDS011;3740;50.700;7.184;2023-01-15T07:19:04;0.37;;;0.30;;
7398;SDS011;3740;50.700;7.184;2023-01-15T07:21:29;0.70;;;0.57;;
7398;SDS011;3740;50.700;7.184;2023-01-15T07:23:58;0.53;;;0.40;;
7398;SDS011;3740;50.700;7.184;2023-01-15T07:26:24;0.57;;;0.30;;
7398;SDS011;3740;50.700;7.184;2023-01-15T07:28:50;0.23;;;0.23;;
7398;SDS011;3740;50.700;7.184;2023-01-15T07:31:16;0.47;;;0.40;;
7398;SDS011;3740;50.700;7.184;2023-01-15T07:33:41;0.50;;;0.20;;
7398;SDS011;3740;50.700;7.184;2023-01-15T07:36:07;0.33;;;0.30;;
7398;SDS011;3740;50.700;7.184;2023-01-15T07:38:33;0.30;;;0.30;;
7398;SDS011;3740;50.700;7.184;2023-01-15T07:40:58;0.40;;;0.40;;
7398;SDS011;3740;50.700;7.184;2023-01-15T07:43:43;0.50;;;0.43;;
7398;SDS011;3740;50.700;7.184;2023-01-15T07:46:27;0.90;;;0.50;;
7398;SDS011;3740;50.700;7.184;2023-01-15T07:49:12;0.30;;;0.30;;
7398;SDS011;3740;50.700;7.184;2023-01-15T07:51:56;0.20;;;0.20;;
7398;SDS011;3740;50.700;7.184;2023-01-15T07:54:22;0.20;;;0.20;;
7398;SDS011;3740;50.700;7.184;2023-01-15T07:56:48;0.20;;;0.20;;
7398;SDS011;3740;50.700;7.184;2023-01-15T07:59:15;0.47;;;0.43;;
7398;SDS011;3740;50.700;7.184;2023-01-15T08:01:41;0.97;;;0.33;;
7398;SDS011;3740;50.700;7.184;2023-01-15T08:04:06;0.43;;;0.43;;
7398;SDS011;3740;50.700;7.184;2023-01-15T08:06:33;0.33;;;0.30;;
7398;SDS011;3740;50.700;7.184;2023-01-15T08:08:59;0.33;;;0.20;;
7398;SDS011;3740;50.700;7.184;2023-01-15T08:11:25;0.53;;;0.30;;
7398;SDS011;3740;50.700;7.184;2023-01-15T08:14:09;0.43;;;0.40;;
7398;SDS011;3740;50.700;7.184;2023-01-15T08:16:53;0.47;;;0.40;;
7398;SDS011;3740;50.700;7.184;2023-01-15T08:19:19;0.40;;;0.20;;
7398;SDS011;3740;50.700;7.184;2023-01-15T08:21:44;0.63;;;0.33;;
7398;SDS011;3740;50.700;7.184;2023-01-15T08:24:10;0.47;;;0.20;;
7398;SDS011;3740;50.700;7.184;2023-01-15T08:26:36;0.70;;;0.70;;
7398;SDS011;3740;50.700;7.184;2023-01-15T08:29:01;0.63;;;0.50;;
7398;SDS011;3740;50.700;7.184;2023-01-15T08:31:27;0.70;;;0.50;;
7398;SDS011;3740;50.700;7.184;2023-01-15T08:33:52;0.80;;;0.60;;
7398;SDS011;3740;50.700;7.184;2023-01-15T08:36:18;3.03;;;1.10;;
7398;SDS011;3740;50.700;7.184;2023-01-15T08:38:43;1.23;;;0.80;;
7398;SDS011;3740;50.700;7.184;2023-01-15T08:41:09;0.40;;;0.40;;
7398;SDS011;3740;50.700;7.184;2023-01-15T08:43:35;0.50;;;0.50;;
7398;SDS011;3740;50.700;7.184;2023-01-15T08:46:01;0.83;;;0.67;;
7398;SDS011;3740;50.700;7.184;2023-01-15T08:48:29;0.90;;;0.60;;
7398;SDS011;3740;50.700;7.184;2023-01-15T08:50:55;1.07;;;0.80;;
7398;SDS011;3740;50.700;7.184;2023-01-15T08:53:21;1.20;;;0.60;;
7398;SDS011;3740;50.700;7.184;2023-01-15T08:55:48;0.50;;;0.50;;
7398;SDS011;3740;50.700;7.184;2023-01-15T08:58:14;0.60;;;0.60;;
7398;SDS011;3740;50.700;7.184;2023-01-15T09:00:40;0.80;;;0.80;;
7398;SDS011;3740;50.700;7.184;2023-01-15T09:03:06;1.03;;;0.87;;
7398;SDS011;3740;50.700;7.184;2023-01-15T09:05:31;1.43;;;0.90;;
7398;SDS011;3740;50.700;7.184;2023-01-15T09:07:57;1.63;;;0.90;;
7398;SDS011;3740;50.700;7.184;2023-01-15T09:10:22;1.40;;;0.80;;
7398;SDS011;3740;50.700;7.184;2023-01-15T09:12:48;2.10;;;0.87;;
7398;SDS011;3740;50.700;7.184;2023-01-15T09:15:14;1.17;;;0.97;;
7398;SDS011;3740;50.700;7.184;2023-01-15T09:17:41;1.30;;;0.80;;
7398;SDS011;3740;50.700;7.184;2023-01-15T09:20:07;0.73;;;0.73;;
7398;SDS011;3740;50.700;7.184;2023-01-15T09:22:35;1.00;;;0.87;;
7398;SDS011;3740;50.700;7.184;2023-01-15T09:25:00;1.57;;;1.00;;
7398;SDS011;3740;50.700;7.184;2023-01-15T09:27:26;1.27;;;0.80;;
7398;SDS011;3740;50.700;7.184;2023-01-15T09:29:52;1.17;;;1.07;;
7398;SDS011;3740;50.700;7.184;2023-01-15T09:32:18;2.33;;;1.20;;
7398;SDS011;3740;50.700;7.184;2023-01-15T09:34:44;1.23;;;0.80;;
7398;SDS011;3740;50.700;7.184;2023-01-15T09:37:09;2.10;;;1.23;;
7398;SDS011;3740;50.700;7.184;2023-01-15T09:39:38;2.20;;;1.80;;
7398;SDS011;3740;50.700;7.184;2023-01-15T09:42:11;2.63;;;1.77;;
7398;SDS011;3740;50.700;7.184;2023-01-15T09:47:17;2.17;;;1.67;;
7398;SDS011;3740;50.700;7.184;2023-01-15T09:49:55;2.27;;;1.70;;
7398;SDS011;3740;50.700;7.184;2023-01-15T09:57:56;3.63;;;1.70;;
7398;SDS011;3740;50.700;7.184;2023-01-15T10:00:25;2.03;;;1.40;;
7398;SDS011;3740;50.700;7.184;2023-01-15T10:09:20;4.23;;;1.60;;
7398;SDS011;3740;50.700;7.184;2023-01-15T10:11:54;3.63;;;1.60;;
7398;SDS011;3740;50.700;7.184;2023-01-15T10:14:45;3.53;;;2.00;;
7398;SDS011;3740;50.700;7.184;2023-01-15T10:17:24;3.43;;;1.77;;
7398;SDS011;3740;50.700;7.184;2023-01-15T10:19:52;3.05;;;1.70;;
7398;SDS011;3740;50.700;7.184;2023-01-15T10:22:31;3.03;;;1.60;;
7398;SDS011;3740;50.700;7.184;2023-01-15T10:25:15;5.22;;;2.13;;
7398;SDS011;3740;50.700;7.184;2023-01-15T10:27:49;2.40;;;1.60;;
7398;SDS011;3740;50.700;7.184;2023-01-15T10:30:22;3.93;;;1.83;;
7398;SDS011;3740;50.700;7.184;2023-01-15T10:36:00;5.00;;;1.90;;
7398;SDS011;3740;50.700;7.184;2023-01-15T10:38:47;2.77;;;1.57;;
7398;SDS011;3740;50.700;7.184;2023-01-15T10:41:51;3.07;;;2.00;;
7398;SDS011;3740;50.700;7.184;2023-01-15T10:46:55;6.07;;;2.00;;
7398;SDS011;3740;50.700;7.184;2023-01-15T10:49:27;4.30;;;1.97;;
7398;SDS011;3740;50.700;7.184;2023-01-15T10:51:55;4.07;;;2.20;;
7398;SDS011;3740;50.700;7.184;2023-01-15T10:54:37;3.10;;;1.30;;
7398;SDS011;3740;50.700;7.184;2023-01-15T10:57:08;4.00;;;1.83;;
7398;SDS011;3740;50.700;7.184;2023-01-15T11:04:56;4.25;;;1.58;;
7398;SDS011;3740;50.700;7.184;2023-01-15T11:07:34;4.20;;;1.95;;
7398;SDS011;3740;50.700;7.184;2023-01-15T11:10:04;5.15;;;1.83;;
7398;SDS011;3740;50.700;7.184;2023-01-15T11:12:37;6.28;;;2.10;;
7398;SDS011;3740;50.700;7.184;2023-01-15T11:15:23;3.75;;;1.65;;
7398;SDS011;3740;50.700;7.184;2023-01-15T11:18:21;2.88;;;1.50;;
7398;SDS011;3740;50.700;7.184;2023-01-15T11:21:10;3.13;;;1.57;;
7398;SDS011;3740;50.700;7.184;2023-01-15T11:23:37;3.53;;;1.50;;
7398;SDS011;3740;50.700;7.184;2023-01-15T11:26:03;3.77;;;1.87;;
7398;SDS011;3740;50.700;7.184;2023-01-15T11:28:30;4.03;;;2.00;;
7398;SDS011;3740;50.700;7.184;2023-01-15T11:30:59;3.53;;;1.70;;
7398;SDS011;3740;50.700;7.184;2023-01-15T11:33:26;3.17;;;1.47;;
7398;SDS011;3740;50.700;7.184;2023-01-15T11:35:54;2.43;;;1.40;;
7398;SDS011;3740;50.700;7.184;2023-01-15T11:38:23;2.30;;;1.70;;
7398;SDS011;3740;50.700;7.184;2023-01-15T11:40:50;3.27;;;1.83;;
7398;SDS011;3740;50.700;7.184;2023-01-15T11:43:22;2.03;;;1.53;;
7398;SDS011;3740;50.700;7.184;2023-01-15T11:46:27;2.07;;;1.30;;
7398;SDS011;3740;50.700;7.184;2023-01-15T11:49:16;3.47;;;1.80;;
7398;SDS011;3740;50.700;7.184;2023-01-15T11:52:02;3.23;;;1.60;;
7398;SDS011;3740;50.700;7.184;2023-01-15T11:54:37;3.67;;;1.87;;
7398;SDS011;3740;50.700;7.184;2023-01-15T11:57:06;2.77;;;1.47;;
7398;SDS011;3740;50.700;7.184;2023-01-15T11:59:32;3.47;;;1.80;;
7398;SDS011;3740;50.700;7.184;2023-01-15T12:01:58;3.10;;;1.67;;
7398;SDS011;3740;50.700;7.184;2023-01-15T12:06:54;5.17;;;2.03;;
7398;SDS011;3740;50.700;7.184;2023-01-15T12:29:14;4.80;;;1.93;;
7398;SDS011;3740;50.700;7.184;2023-01-15T12:31:54;6.50;;;2.20;;
7398;SDS011;3740;50.700;7.184;2023-01-15T12:40:18;2.80;;;1.90;;
7398;SDS011;3740;50.700;7.184;2023-01-15T12:42:41;5.20;;;2.00;;
7398;SDS011;3740;50.700;7.184;2023-01-15T12:45:32;2.40;;;1.60;;
7398;SDS011;3740;50.700;7.184;2023-01-15T12:53:12;4.03;;;2.23;;
7398;SDS011;3740;50.700;7.184;2023-01-15T13:06:47;4.03;;;1.93;;
7398;SDS011;3740;50.700;7.184;2023-01-15T13:09:35;3.60;;;1.77;;
7398;SDS011;3740;50.700;7.184;2023-01-15T13:12:12;5.10;;;1.73;;
7398;SDS011;3740;50.700;7.184;2023-01-15T13:14:40;3.63;;;1.67;;
7398;SDS011;3740;50.700;7.184;2023-01-15T13:22:51;3.17;;;1.50;;
7398;SDS011;3740;50.700;7.184;2023-01-15T13:28:42;3.90;;;1.50;;
7398;SDS011;3740;50.700;7.184;2023-01-15T13:34:28;3.73;;;1.57;;
7398;SDS011;3740;50.700;7.184;2023-01-15T13:37:01;3.60;;;1.90;;
7398;SDS011;3740;50.700;7.184;2023-01-15T13:39:42;4.43;;;1.83;;
7398;SDS011;3740;50.700;7.184;2023-01-15T13:42:21;3.13;;;1.80;;
7398;SDS011;3740;50.700;7.184;2023-01-15T13:48:12;5.77;;;1.90;;
7398;SDS011;3740;50.700;7.184;2023-01-15T13:51:00;4.97;;;1.90;;
7398;SDS011;3740;50.700;7.184;2023-01-15T13:53:35;4.07;;;1.83;;
7398;SDS011;3740;50.700;7.184;2023-01-15T13:56:09;6.13;;;2.07;;
7398;SDS011;3740;50.700;7.184;2023-01-15T13:58:50;3.47;;;1.57;;
7398;SDS011;3740;50.700;7.184;2023-01-15T14:03:51;3.90;;;1.50;;
7398;SDS011;3740;50.700;7.184;2023-01-15T14:06:50;4.23;;;2.00;;
7398;SDS011;3740;50.700;7.184;2023-01-15T14:09:34;4.53;;;1.57;;
7398;SDS011;3740;50.700;7.184;2023-01-15T14:14:46;4.10;;;1.67;;
7398;SDS011;3740;50.700;7.184;2023-01-15T14:26:01;3.17;;;1.70;;
7398;SDS011;3740;50.700;7.184;2023-01-15T14:28:47;2.47;;;1.30;;
7398;SDS011;3740;50.700;7.184;2023-01-15T14:31:23;4.80;;;1.80;;
7398;SDS011;3740;50.700;7.184;2023-01-15T14:36:48;3.07;;;1.43;;
7398;SDS011;3740;50.700;7.184;2023-01-15T14:39:28;3.53;;;1.30;;
7398;SDS011;3740;50.700;7.184;2023-01-15T14:44:58;3.37;;;1.60;;
7398;SDS011;3740;50.700;7.184;2023-01-15T14:47:32;2.47;;;1.50;;
7398;SDS011;3740;50.700;7.184;2023-01-15T14:50:25;4.07;;;1.70;;
7398;SDS011;3740;50.700;7.184;2023-01-15T14:53:04;2.03;;;1.17;;
7398;SDS011;3740;50.700;7.184;2023-01-15T14:55:42;3.40;;;1.80;;
7398;SDS011;3740;50.700;7.184;2023-01-15T14:58:37;2.77;;;1.73;;
7398;SDS011;3740;50.700;7.184;2023-01-15T15:01:03;2.67;;;1.60;;
7398;SDS011;3740;50.700;7.184;2023-01-15T15:06:23;4.27;;;2.13;;
7398;SDS011;3740;50.700;7.184;2023-01-15T15:08:51;3.73;;;1.40;;
7398;SDS011;3740;50.700;7.184;2023-01-15T15:11:24;3.27;;;2.27;;
7398;SDS011;3740;50.700;7.184;2023-01-15T15:14:17;3.07;;;1.67;;
7398;SDS011;3740;50.700;7.184;2023-01-15T15:16:45;3.20;;;2.20;;
7398;SDS011;3740;50.700;7.184;2023-01-15T15:19:22;1.80;;;1.30;;
7398;SDS011;3740;50.700;7.184;2023-01-15T15:21:55;3.73;;;1.50;;
7398;SDS011;3740;50.700;7.184;2023-01-15T15:24:34;2.30;;;1.40;;
7398;SDS011;3740;50.700;7.184;2023-01-15T15:27:13;2.83;;;1.67;;
7398;SDS011;3740;50.700;7.184;2023-01-15T15:29:44;2.43;;;1.60;;
7398;SDS011;3740;50.700;7.184;2023-01-15T15:32:11;2.53;;;1.50;;
7398;SDS011;3740;50.700;7.184;2023-01-15T15:34:42;4.90;;;1.87;;
7398;SDS011;3740;50.700;7.184;2023-01-15T15:37:12;2.30;;;1.57;;
7398;SDS011;3740;50.700;7.184;2023-01-15T15:39:48;3.07;;;1.53;;
7398;SDS011;3740;50.700;7.184;2023-01-15T15:42:18;3.03;;;1.73;;
7398;SDS011;3740;50.700;7.184;2023-01-15T15:45:05;2.07;;;1.30;;
7398;SDS011;3740;50.700;7.184;2023-01-15T15:48:08;2.37;;;1.50;;
7398;SDS011;3740;50.700;7.184;2023-01-15T15:51:04;3.30;;;1.63;;
7398;SDS011;3740;50.700;7.184;2023-01-15T15:53:47;4.87;;;1.80;;
7398;SDS011;3740;50.700;7.184;2023-01-15T15:56:12;2.23;;;1.60;;
7398;SDS011;3740;50.700;7.184;2023-01-15T15:58:38;2.70;;;1.90;;
7398;SDS011;3740;50.700;7.184;2023-01-15T16:01:04;4.27;;;1.60;;
7398;SDS011;3740;50.700;7.184;2023-01-15T16:03:43;1.90;;;1.47;;
7398;SDS011;3740;50.700;7.184;2023-01-15T16:06:20;2.53;;;1.50;;
7398;SDS011;3740;50.700;7.184;2023-01-15T16:08:56;3.23;;;1.80;;
7398;SDS011;3740;50.700;7.184;2023-01-15T16:11:28;2.67;;;1.33;;
7398;SDS011;3740;50.700;7.184;2023-01-15T16:13:55;3.17;;;1.70;;
7398;SDS011;3740;50.700;7.184;2023-01-15T16:16:25;2.40;;;1.63;;
7398;SDS011;3740;50.700;7.184;2023-01-15T16:18:52;3.67;;;2.20;;
7398;SDS011;3740;50.700;7.184;2023-01-15T16:21:26;3.37;;;1.70;;
7398;SDS011;3740;50.700;7.184;2023-01-15T16:24:05;2.53;;;1.93;;
7398;SDS011;3740;50.700;7.184;2023-01-15T16:26:39;4.37;;;2.33;;
7398;SDS011;3740;50.700;7.184;2023-01-15T16:29:20;3.17;;;1.83;;
7398;SDS011;3740;50.700;7.184;2023-01-15T16:31:48;4.30;;;2.30;;
7398;SDS011;3740;50.700;7.184;2023-01-15T16:34:19;3.70;;;2.23;;
7398;SDS011;3740;50.700;7.184;2023-01-15T16:36:50;3.40;;;2.10;;
7398;SDS011;3740;50.700;7.184;2023-01-15T16:39:27;4.43;;;1.83;;
7398;SDS011;3740;50.700;7.184;2023-01-15T16:41:57;2.60;;;1.63;;
7398;SDS011;3740;50.700;7.184;2023-01-15T16:44:36;3.23;;;1.87;;
7398;SDS011;3740;50.700;7.184;2023-01-15T16:47:24;3.93;;;1.77;;
7398;SDS011;3740;50.700;7.184;2023-01-15T16:50:24;2.47;;;1.67;;
7398;SDS011;3740;50.700;7.184;2023-01-15T16:52:51;4.17;;;1.80;;
7398;SDS011;3740;50.700;7.184;2023-01-15T17:00:36;3.30;;;1.67;;
7398;SDS011;3740;50.700;7.184;2023-01-15T17:03:30;3.73;;;2.03;;
7398;SDS011;3740;50.700;7.184;2023-01-15T17:05:58;2.43;;;1.53;;
7398;SDS011;3740;50.700;7.184;2023-01-15T17:11:02;3.00;;;1.80;;
7398;SDS011;3740;50.700;7.184;2023-01-15T17:13:37;3.97;;;2.00;;
7398;SDS011;3740;50.700;7.184;2023-01-15T17:16:14;3.70;;;2.27;;
7398;SDS011;3740;50.700;7.184;2023-01-15T17:18:42;3.23;;;1.73;;
7398;SDS011;3740;50.700;7.184;2023-01-15T17:21:21;1.77;;;1.43;;
7398;SDS011;3740;50.700;7.184;2023-01-15T17:23:51;2.27;;;1.90;;
7398;SDS011;3740;50.700;7.184;2023-01-15T17:26:19;4.57;;;2.00;;
7398;SDS011;3740;50.700;7.184;2023-01-15T17:28:46;3.40;;;1.97;;
7398;SDS011;3740;50.700;7.184;2023-01-15T17:33:52;2.57;;;1.70;;
7398;SDS011;3740;50.700;7.184;2023-01-15T17:36:19;1.37;;;1.23;;
7398;SDS011;3740;50.700;7.184;2023-01-15T17:38:45;3.47;;;1.57;;
7398;SDS011;3740;50.700;7.184;2023-01-15T17:41:15;3.07;;;1.80;;
7398;SDS011;3740;50.700;7.184;2023-01-15T17:43:41;3.43;;;1.87;;
7398;SDS011;3740;50.700;7.184;2023-01-15T17:46:07;4.17;;;2.13;;
7398;SDS011;3740;50.700;7.184;2023-01-15T17:48:33;3.57;;;2.13;;
7398;SDS011;3740;50.700;7.184;2023-01-15T17:50:59;3.73;;;1.90;;
7398;SDS011;3740;50.700;7.184;2023-01-15T17:53:26;4.13;;;1.93;;
7398;SDS011;3740;50.700;7.184;2023-01-15T17:55:52;3.37;;;2.00;;
7398;SDS011;3740;50.700;7.184;2023-01-15T17:58:37;5.07;;;2.10;;
7398;SDS011;3740;50.700;7.184;2023-01-15T18:01:22;4.57;;;2.27;;
7398;SDS011;3740;50.700;7.184;2023-01-15T18:04:13;3.53;;;2.13;;
7398;SDS011;3740;50.700;7.184;2023-01-15T18:07:08;2.97;;;1.97;;